createdAt,value
2019-02-02T00:01:59.450Z,1.32
2019-02-02T00:04:28.968Z,1.19
2019-02-02T00:06:58.621Z,1.18
2019-02-02T00:09:28.747Z,1.28
2019-02-02T00:11:58.737Z,1.29
2019-02-02T00:14:28.700Z,1.41
2019-02-02T00:16:59.132Z,1.44
2019-02-02T00:19:29.080Z,1.34
2019-02-02T00:21:58.899Z,1.13
2019-02-02T00:24:29.078Z,1.20
2019-02-02T00:26:58.939Z,1.30
2019-02-02T00:29:28.913Z,1.35
2019-02-02T00:31:59.084Z,1.46
2019-02-02T00:34:28.986Z,1.56
2019-02-02T00:36:59.371Z,1.35
2019-02-02T00:39:29.093Z,1.25
2019-02-02T00:41:59.334Z,1.02
2019-02-02T00:44:29.352Z,0.97
2019-02-02T00:46:59.609Z,1.13
2019-02-02T00:49:29.300Z,1.22
2019-02-02T00:51:59.395Z,1.12
2019-02-02T00:54:29.435Z,1.09
2019-02-02T00:56:59.868Z,0.94
2019-02-02T00:59:29.649Z,0.95
2019-02-02T01:01:59.452Z,0.91
2019-02-02T01:04:29.491Z,0.95
2019-02-02T01:06:59.872Z,0.93
2019-02-02T01:09:29.873Z,0.97
2019-02-02T01:11:59.937Z,0.92
2019-02-02T01:14:29.648Z,1.10
2019-02-02T01:17:00.064Z,1.11
2019-02-02T01:19:30.221Z,1.10
2019-02-02T01:22:00.041Z,1.06
2019-02-02T01:24:30.076Z,1.04
2019-02-02T01:27:00.111Z,1.09
2019-02-02T01:29:29.918Z,1.09
2019-02-02T01:32:00.178Z,0.91
2019-02-02T01:34:30.000Z,1.00
2019-02-02T01:37:00.245Z,0.95
2019-02-02T01:39:30.031Z,0.97
2019-02-02T01:42:00.289Z,0.90
2019-02-02T01:44:30.236Z,0.84
2019-02-02T01:47:00.187Z,0.89
2019-02-02T01:49:30.256Z,0.98
2019-02-02T01:52:00.228Z,1.03
2019-02-02T01:54:30.327Z,0.98
2019-02-02T01:57:00.452Z,0.89
2019-02-02T01:59:30.314Z,0.92
2019-02-02T02:02:00.667Z,0.98
2019-02-02T02:04:30.466Z,1.05
2019-02-02T02:07:00.591Z,1.11
2019-02-02T02:09:30.672Z,0.94
2019-02-02T02:12:00.759Z,1.17
2019-02-02T02:14:30.600Z,1.28
2019-02-02T02:17:01.885Z,1.24
2019-02-02T02:19:31.664Z,1.10
2019-02-02T02:22:02.193Z,1.12
2019-02-02T02:24:32.029Z,1.18
2019-02-02T02:27:01.668Z,1.10
2019-02-02T02:29:31.458Z,1.10
2019-02-02T02:32:01.131Z,1.13
2019-02-02T02:34:31.490Z,1.06
2019-02-02T02:37:01.973Z,1.09
2019-02-02T02:39:31.739Z,1.35
2019-02-02T02:42:01.696Z,1.06
2019-02-02T02:44:31.202Z,0.90
2019-02-02T02:47:01.304Z,1.04
2019-02-02T02:49:31.072Z,1.26
2019-02-02T02:52:01.144Z,0.95
2019-02-02T02:54:31.468Z,0.88
2019-02-02T02:57:01.406Z,0.89
2019-02-02T02:59:31.787Z,1.12
2019-02-02T03:02:01.375Z,1.06
2019-02-02T03:04:31.586Z,1.13
2019-02-02T03:07:01.631Z,1.04
2019-02-02T03:09:31.856Z,0.99
2019-02-02T03:12:01.539Z,1.02
2019-02-02T03:14:31.505Z,1.02
2019-02-02T03:17:01.632Z,0.79
2019-02-02T03:19:31.746Z,0.83
2019-02-02T03:22:01.649Z,0.84
2019-02-02T03:24:31.669Z,0.91
2019-02-02T03:27:01.971Z,1.03
2019-02-02T03:29:31.820Z,0.88
2019-02-02T03:32:02.191Z,0.84
2019-02-02T03:34:31.943Z,0.91
2019-02-02T03:37:01.977Z,0.82
2019-02-02T03:39:32.303Z,0.85
2019-02-02T03:42:02.164Z,0.92
2019-02-02T03:44:32.208Z,1.03
2019-02-02T03:47:02.495Z,0.87
2019-02-02T03:49:32.451Z,0.72
2019-02-02T03:52:02.319Z,0.76
2019-02-02T03:54:32.576Z,0.88
2019-02-02T03:57:02.524Z,0.78
2019-02-02T03:59:32.407Z,0.90
2019-02-02T04:02:02.626Z,0.67
2019-02-02T04:04:32.664Z,0.76
2019-02-02T04:07:02.526Z,0.70
2019-02-02T04:09:32.983Z,0.74
2019-02-02T04:12:02.530Z,0.78
2019-02-02T04:14:32.732Z,0.88
2019-02-02T04:17:02.938Z,0.77
2019-02-02T04:19:32.621Z,1.01
2019-02-02T04:22:02.949Z,0.80
2019-02-02T04:24:33.104Z,0.73
2019-02-02T04:27:02.846Z,0.78
2019-02-02T04:29:32.832Z,0.97
2019-02-02T04:32:03.122Z,0.80
2019-02-02T04:34:33.582Z,0.87
2019-02-02T04:37:03.109Z,0.81
2019-02-02T04:39:33.786Z,0.85
2019-02-02T04:42:03.672Z,0.91
2019-02-02T04:44:33.632Z,0.90
2019-02-02T04:47:03.155Z,0.92
2019-02-02T04:49:33.608Z,0.88
2019-02-02T04:52:03.305Z,0.82
2019-02-02T04:54:33.266Z,0.88
2019-02-02T04:57:03.511Z,0.75
2019-02-02T04:59:33.445Z,0.85
2019-02-02T05:02:04.353Z,0.81
2019-02-02T05:04:33.897Z,0.75
2019-02-02T05:07:03.515Z,0.78
2019-02-02T05:09:33.626Z,0.75
2019-02-02T05:12:03.871Z,0.81
2019-02-02T05:14:33.804Z,0.74
2019-02-02T05:17:03.964Z,0.84
2019-02-02T05:19:34.266Z,0.90
2019-02-02T05:22:03.795Z,0.94
2019-02-02T05:24:33.978Z,1.01
2019-02-02T05:27:04.332Z,0.92
2019-02-02T05:29:41.036Z,0.84
2019-02-02T05:32:05.197Z,0.89
2019-02-02T05:34:34.984Z,0.90
2019-02-02T05:37:04.796Z,0.90
2019-02-02T05:39:34.565Z,0.95
2019-02-02T05:42:04.468Z,1.03
2019-02-02T05:44:33.977Z,1.01
2019-02-02T05:47:03.961Z,1.14
2019-02-02T05:49:34.250Z,1.20
2019-02-02T05:52:04.180Z,1.19
2019-02-02T05:54:35.448Z,1.03
2019-02-02T05:57:05.045Z,0.82
2019-02-02T05:59:35.126Z,0.95
2019-02-02T06:02:04.807Z,1.03
2019-02-02T06:04:34.451Z,1.09
2019-02-02T06:07:04.568Z,1.04
2019-02-02T06:09:34.967Z,0.99
2019-02-02T06:12:04.665Z,1.03
2019-02-02T06:14:34.562Z,1.07
2019-02-02T06:17:04.740Z,1.02
2019-02-02T06:19:34.857Z,1.02
2019-02-02T06:22:04.561Z,0.93
2019-02-02T06:24:34.658Z,0.93
2019-02-02T06:27:04.952Z,0.83
2019-02-02T06:29:34.895Z,0.91
2019-02-02T06:32:12.123Z,0.80
2019-02-02T06:34:36.309Z,1.01
2019-02-02T06:37:06.213Z,0.88
2019-02-02T06:39:35.819Z,0.93
2019-02-02T06:42:05.421Z,0.92
2019-02-02T06:44:35.038Z,0.77
2019-02-02T06:47:05.233Z,0.81
2019-02-02T06:49:34.977Z,0.68
2019-02-02T06:52:05.249Z,0.79
2019-02-02T06:54:35.346Z,0.78
2019-02-02T06:57:05.656Z,0.69
2019-02-02T06:59:35.406Z,0.63
2019-02-02T07:02:05.725Z,0.66
2019-02-02T07:04:35.326Z,0.74
2019-02-02T07:07:05.458Z,0.78
2019-02-02T07:09:35.952Z,0.92
2019-02-02T07:12:05.499Z,0.93
2019-02-02T07:14:35.354Z,1.11
2019-02-02T07:17:05.842Z,1.00
2019-02-02T07:19:35.861Z,0.74
2019-02-02T07:22:05.786Z,0.66
2019-02-02T07:24:36.056Z,0.75
2019-02-02T07:27:05.701Z,0.99
2019-02-02T07:29:36.200Z,1.14
2019-02-02T07:32:06.375Z,1.00
2019-02-02T07:34:35.868Z,0.89
2019-02-02T07:37:05.939Z,0.93
2019-02-02T07:39:36.018Z,0.93
2019-02-02T07:42:05.973Z,1.01
2019-02-02T07:44:36.017Z,1.22
2019-02-02T07:47:05.828Z,1.19
2019-02-02T07:49:35.841Z,1.10
2019-02-02T07:52:06.247Z,1.11
2019-02-02T07:54:36.365Z,0.99
2019-02-02T07:57:06.135Z,0.78
2019-02-02T07:59:36.125Z,0.88
2019-02-02T08:02:06.340Z,0.90
2019-02-02T08:04:36.439Z,0.97
2019-02-02T08:07:06.666Z,0.94
2019-02-02T08:09:36.174Z,0.99
2019-02-02T08:12:06.309Z,1.10
2019-02-02T08:14:37.597Z,1.06
2019-02-02T08:17:07.446Z,0.97
2019-02-02T08:19:37.224Z,0.90
2019-02-02T08:22:07.276Z,0.86
2019-02-02T08:24:38.702Z,0.97
2019-02-02T08:27:08.185Z,0.94
2019-02-02T08:29:38.664Z,0.97
2019-02-02T08:32:08.497Z,0.99
2019-02-02T08:34:38.025Z,0.96
2019-02-02T08:37:07.891Z,1.11
2019-02-02T08:39:37.538Z,1.07
2019-02-02T08:42:07.219Z,1.02
2019-02-02T08:44:37.507Z,1.02
2019-02-02T08:47:07.101Z,1.05
2019-02-02T08:49:40.229Z,1.02
2019-02-02T08:52:08.617Z,1.10
2019-02-02T08:54:38.457Z,1.14
2019-02-02T08:57:08.040Z,1.12
2019-02-02T08:59:37.745Z,1.19
2019-02-02T09:02:07.374Z,1.06
2019-02-02T09:04:36.998Z,1.22
2019-02-02T09:07:07.525Z,1.05
2019-02-02T09:09:37.379Z,1.05
2019-02-02T09:12:07.139Z,1.05
2019-02-02T09:14:37.182Z,1.29
2019-02-02T09:17:07.490Z,1.29
2019-02-02T09:19:37.654Z,1.28
2019-02-02T09:22:07.594Z,1.22
2019-02-02T09:24:37.627Z,1.42
2019-02-02T09:27:07.428Z,1.46
2019-02-02T09:29:37.726Z,1.30
2019-02-02T09:32:07.902Z,1.34
2019-02-02T09:34:37.692Z,1.40
2019-02-02T09:37:07.929Z,1.23
2019-02-02T09:39:37.850Z,1.28
2019-02-02T09:42:08.392Z,1.32
2019-02-02T09:44:38.175Z,1.22
2019-02-02T09:47:08.584Z,1.22
2019-02-02T09:49:38.588Z,1.31
2019-02-02T09:52:08.325Z,1.43
2019-02-02T09:54:38.973Z,1.40
2019-02-02T09:57:08.844Z,1.49
2019-02-02T09:59:38.703Z,1.42
2019-02-02T10:02:08.599Z,1.54
2019-02-02T10:04:38.718Z,1.57
2019-02-02T10:07:08.558Z,1.57
2019-02-02T10:09:38.850Z,1.55
2019-02-02T10:12:08.782Z,1.56
2019-02-02T10:14:38.654Z,1.44
2019-02-02T10:17:08.808Z,1.35
2019-02-02T10:19:38.744Z,1.48
2019-02-02T10:22:08.332Z,1.77
2019-02-02T10:24:39.366Z,1.65
2019-02-02T10:27:09.646Z,1.71
2019-02-02T10:29:39.183Z,1.65
2019-02-02T10:32:09.033Z,1.61
2019-02-02T10:34:39.364Z,1.90
2019-02-02T10:37:09.154Z,1.86
2019-02-02T10:39:39.268Z,2.04
2019-02-02T10:42:09.249Z,2.06
2019-02-02T10:44:39.303Z,1.95
2019-02-02T10:47:09.412Z,2.02
2019-02-02T10:49:41.219Z,2.04
2019-02-02T10:52:10.716Z,1.87
2019-02-02T10:54:40.253Z,1.81
2019-02-02T10:57:09.996Z,1.65
2019-02-02T10:59:39.602Z,1.75
2019-02-02T11:02:09.758Z,1.65
2019-02-02T11:04:40.059Z,1.63
2019-02-02T11:07:10.179Z,1.65
2019-02-02T11:09:39.785Z,1.57
2019-02-02T11:12:09.747Z,1.56
2019-02-02T11:14:40.080Z,1.32
2019-02-02T11:17:10.208Z,1.39
2019-02-02T11:19:40.344Z,1.39
2019-02-02T11:22:10.112Z,1.45
2019-02-02T11:24:39.945Z,1.38
2019-02-02T11:27:12.483Z,1.30
2019-02-02T11:29:41.407Z,1.39
2019-02-02T11:32:10.982Z,1.30
2019-02-02T11:34:41.154Z,1.33
2019-02-02T11:37:10.967Z,1.31
2019-02-02T11:39:40.780Z,1.34
2019-02-02T11:42:10.551Z,1.29
2019-02-02T11:44:40.201Z,1.18
2019-02-02T11:47:10.356Z,1.17
2019-02-02T11:49:40.478Z,1.09
2019-02-02T11:52:10.740Z,1.20
2019-02-02T11:54:40.335Z,1.12
2019-02-02T11:57:10.390Z,1.22
2019-02-02T11:59:40.433Z,1.19
2019-02-02T12:02:14.629Z,1.19
2019-02-02T12:04:42.138Z,1.19
2019-02-02T12:07:11.904Z,1.18
2019-02-02T12:09:41.920Z,1.19
2019-02-02T12:12:11.535Z,1.21
2019-02-02T12:14:41.463Z,1.07
2019-02-02T12:17:11.251Z,1.29
2019-02-02T12:19:40.947Z,1.26
2019-02-02T12:22:10.903Z,1.24
2019-02-02T12:24:41.019Z,1.31
2019-02-02T12:27:11.543Z,1.30
2019-02-02T12:29:41.061Z,1.16
2019-02-02T12:32:11.073Z,1.31
2019-02-02T12:34:41.479Z,1.17
2019-02-02T12:37:11.889Z,1.06
2019-02-02T12:39:41.690Z,1.30
2019-02-02T12:42:11.244Z,1.19
2019-02-02T12:44:41.424Z,1.20
2019-02-02T12:47:11.374Z,1.17
2019-02-02T12:49:41.547Z,1.22
2019-02-02T12:52:11.602Z,1.24
2019-02-02T12:54:41.787Z,1.27
2019-02-02T12:57:11.710Z,1.24
2019-02-02T12:59:41.493Z,1.18
2019-02-02T13:02:11.762Z,1.28
2019-02-02T13:04:41.651Z,1.25
2019-02-02T13:07:11.783Z,1.16
2019-02-02T13:09:41.647Z,1.31
2019-02-02T13:12:11.611Z,1.26
2019-02-02T13:14:41.727Z,1.11
2019-02-02T13:17:11.696Z,1.26
2019-02-02T13:19:42.197Z,1.12
2019-02-02T13:22:11.782Z,1.01
2019-02-02T13:24:41.953Z,1.10
2019-02-02T13:27:11.865Z,1.04
2019-02-02T13:29:42.153Z,1.05
2019-02-02T13:32:12.327Z,1.04
2019-02-02T13:34:42.222Z,1.08
2019-02-02T13:37:11.989Z,1.14
2019-02-02T13:39:42.446Z,1.13
2019-02-02T13:42:12.066Z,1.06
2019-02-02T13:44:42.144Z,1.12
2019-02-02T13:47:12.174Z,1.13
2019-02-02T13:49:42.284Z,1.21
2019-02-02T13:52:12.524Z,1.17
2019-02-02T13:54:42.296Z,1.03
2019-02-02T13:57:12.633Z,1.19
2019-02-02T13:59:42.597Z,1.19
2019-02-02T14:02:12.653Z,1.19
2019-02-02T14:04:42.411Z,1.27
2019-02-02T14:07:18.258Z,1.09
2019-02-02T14:09:44.139Z,1.26
2019-02-02T14:12:14.195Z,1.29
2019-02-02T14:14:44.180Z,1.33
2019-02-02T14:17:14.296Z,1.32
2019-02-02T14:19:43.897Z,1.34
2019-02-02T14:22:13.809Z,1.33
2019-02-02T14:24:43.654Z,1.33
2019-02-02T14:27:13.204Z,1.23
2019-02-02T14:29:43.066Z,1.24
2019-02-02T14:32:12.988Z,1.31
2019-02-02T14:34:43.148Z,1.33
2019-02-02T14:37:13.204Z,1.36
2019-02-02T14:39:43.186Z,1.36
2019-02-02T14:42:13.371Z,1.23
2019-02-02T14:44:43.603Z,1.03
2019-02-02T14:47:13.324Z,1.10
2019-02-02T14:49:43.439Z,1.27
2019-02-02T14:52:13.253Z,1.37
2019-02-02T14:54:43.666Z,1.41
2019-02-02T14:57:13.295Z,1.22
2019-02-02T14:59:43.345Z,1.38
2019-02-02T15:02:13.385Z,1.28
2019-02-02T15:04:43.902Z,1.31
2019-02-02T15:07:13.613Z,1.39
2019-02-02T15:09:43.893Z,1.32
2019-02-02T15:12:13.633Z,1.40
2019-02-02T15:14:43.521Z,1.39
2019-02-02T15:17:13.641Z,1.32
2019-02-02T15:19:43.589Z,1.28
2019-02-02T15:22:13.990Z,1.33
2019-02-02T15:24:44.063Z,1.26
2019-02-02T15:27:14.822Z,1.27
2019-02-02T15:29:44.754Z,1.23
2019-02-02T15:32:14.304Z,1.23
2019-02-02T15:34:45.582Z,1.29
2019-02-02T15:37:15.238Z,1.36
2019-02-02T15:39:44.783Z,1.34
2019-02-02T15:42:14.697Z,1.49
2019-02-02T15:44:44.494Z,1.24
2019-02-02T15:47:14.364Z,1.35
2019-02-02T15:49:44.174Z,1.29
2019-02-02T15:52:14.462Z,1.42
2019-02-02T15:54:45.219Z,1.42
2019-02-02T15:57:14.731Z,1.46
2019-02-02T15:59:44.539Z,1.44
2019-02-02T16:02:14.392Z,1.42
2019-02-02T16:04:44.962Z,1.39
2019-02-02T16:07:14.854Z,1.42
2019-02-02T16:09:44.538Z,1.34
2019-02-02T16:12:14.836Z,1.37
2019-02-02T16:14:44.740Z,1.26
2019-02-02T16:17:14.977Z,1.37
2019-02-02T16:19:44.667Z,1.43
2019-02-02T16:22:14.792Z,1.40
2019-02-02T16:24:44.690Z,1.39
2019-02-02T16:27:14.672Z,1.45
2019-02-02T16:29:44.676Z,1.39
2019-02-02T16:32:15.027Z,1.35
2019-02-02T16:34:45.155Z,1.39
2019-02-02T16:37:15.117Z,1.40
2019-02-02T16:39:44.854Z,1.49
2019-02-02T16:42:15.096Z,1.46
2019-02-02T16:44:45.037Z,1.43
2019-02-02T16:47:15.581Z,1.43
2019-02-02T16:49:45.075Z,1.50
2019-02-02T16:52:15.624Z,1.46
2019-02-02T16:54:45.222Z,1.58
2019-02-02T16:57:15.174Z,1.49
2019-02-02T16:59:45.456Z,1.46
2019-02-02T17:02:15.270Z,1.36
2019-02-02T17:04:45.549Z,1.46
2019-02-02T17:07:15.567Z,1.54
2019-02-02T17:09:45.524Z,1.48
2019-02-02T17:12:15.422Z,1.48
2019-02-02T17:14:45.562Z,1.65
2019-02-02T17:17:15.733Z,1.62
2019-02-02T17:19:45.489Z,1.56
2019-02-02T17:22:15.585Z,1.48
2019-02-02T17:24:46.227Z,1.52
2019-02-02T17:27:15.952Z,1.60
2019-02-02T17:29:45.631Z,1.67
2019-02-02T17:32:16.087Z,1.61
2019-02-02T17:34:45.715Z,1.52
2019-02-02T17:37:16.215Z,1.47
2019-02-02T17:39:45.817Z,1.44
2019-02-02T17:42:16.163Z,1.53
2019-02-02T17:44:47.320Z,1.49
2019-02-02T17:47:17.240Z,1.47
2019-02-02T17:49:46.745Z,1.49
2019-02-02T17:52:16.380Z,1.44
2019-02-02T17:54:46.389Z,1.46
2019-02-02T17:57:15.886Z,1.43
2019-02-02T17:59:46.141Z,1.40
2019-02-02T18:02:16.388Z,1.36
2019-02-02T18:04:46.197Z,1.35
2019-02-02T18:07:16.227Z,1.31
2019-02-02T18:09:46.804Z,1.36
2019-02-02T18:12:17.017Z,1.38
2019-02-02T18:14:48.141Z,1.42
2019-02-02T18:17:17.792Z,1.45
2019-02-02T18:19:47.323Z,1.31
2019-02-02T18:22:16.913Z,1.38
2019-02-02T18:24:46.845Z,1.47
2019-02-02T18:27:16.533Z,1.36
2019-02-02T18:29:47.509Z,1.39
2019-02-02T18:32:17.059Z,1.44
2019-02-02T18:34:51.310Z,1.41
2019-02-02T18:37:18.339Z,1.49
2019-02-02T18:39:47.850Z,1.36
2019-02-02T18:42:17.362Z,1.35
2019-02-02T18:44:47.216Z,1.35
2019-02-02T18:47:17.310Z,1.44
2019-02-02T18:49:46.922Z,1.39
2019-02-02T18:52:17.121Z,1.39
2019-02-02T18:54:47.315Z,1.48
2019-02-02T18:57:17.141Z,1.29
2019-02-02T18:59:47.149Z,1.17
2019-02-02T19:02:17.518Z,1.32
2019-02-02T19:04:47.460Z,1.32
2019-02-02T19:07:17.944Z,1.29
2019-02-02T19:09:47.499Z,1.30
2019-02-02T19:12:17.441Z,1.26
2019-02-02T19:14:47.335Z,1.24
2019-02-02T19:17:17.525Z,1.35
2019-02-02T19:19:47.843Z,1.31
2019-02-02T19:22:17.443Z,1.22
2019-02-02T19:24:47.514Z,1.20
2019-02-02T19:27:17.735Z,1.11
2019-02-02T19:29:47.790Z,1.13
2019-02-02T19:32:17.618Z,1.15
2019-02-02T19:34:49.279Z,1.21
2019-02-02T19:37:21.121Z,1.32
2019-02-02T19:39:50.420Z,1.25
2019-02-02T19:42:20.047Z,1.29
2019-02-02T19:44:49.567Z,1.31
2019-02-02T19:47:19.302Z,1.23
2019-02-02T19:49:48.783Z,1.24
2019-02-02T19:52:18.691Z,1.41
2019-02-02T19:54:48.843Z,1.30
2019-02-02T19:57:19.753Z,1.32
2019-02-02T19:59:51.307Z,1.25
2019-02-02T20:02:21.142Z,1.18
2019-02-02T20:04:50.964Z,1.23
2019-02-02T20:07:20.940Z,1.21
2019-02-02T20:09:51.549Z,1.22
2019-02-02T20:12:21.696Z,1.21
2019-02-02T20:14:51.361Z,1.19
2019-02-02T20:17:21.024Z,1.10
2019-02-02T20:19:50.591Z,1.12
2019-02-02T20:22:20.626Z,1.17
2019-02-02T20:24:50.578Z,1.33
2019-02-02T20:27:20.412Z,1.30
2019-02-02T20:29:50.088Z,1.35
2019-02-02T20:32:19.665Z,1.18
2019-02-02T20:34:49.290Z,1.25
2019-02-02T20:37:19.124Z,1.16
2019-02-02T20:39:48.720Z,1.17
2019-02-02T20:42:19.191Z,1.34
2019-02-02T20:44:48.800Z,1.38
2019-02-02T20:47:18.736Z,1.31
2019-02-02T20:49:49.259Z,1.29
2019-02-02T20:52:18.768Z,1.24
2019-02-02T20:54:49.434Z,1.32
2019-02-02T20:57:19.676Z,1.25
2019-02-02T20:59:49.246Z,1.24
2019-02-02T21:02:18.900Z,1.21
2019-02-02T21:04:49.111Z,1.33
2019-02-02T21:07:19.006Z,1.22
2019-02-02T21:09:49.106Z,1.32
2019-02-02T21:12:19.336Z,1.40
2019-02-02T21:14:49.392Z,1.29
2019-02-02T21:17:19.160Z,1.42
2019-02-02T21:19:49.290Z,1.28
2019-02-02T21:22:19.540Z,1.32
2019-02-02T21:24:49.656Z,1.32
2019-02-02T21:27:21.093Z,1.25
2019-02-02T21:29:50.752Z,1.23
2019-02-02T21:32:20.332Z,1.24
2019-02-02T21:34:49.887Z,1.30
2019-02-02T21:37:19.475Z,1.29
2019-02-02T21:39:49.781Z,1.32
2019-02-02T21:42:19.601Z,1.33
2019-02-02T21:44:49.617Z,1.30
2019-02-02T21:47:19.845Z,1.31
2019-02-02T21:49:49.953Z,1.25
2019-02-02T21:52:19.701Z,1.34
2019-02-02T21:54:50.377Z,1.40
2019-02-02T21:57:20.068Z,1.39
2019-02-02T21:59:50.488Z,1.54
2019-02-02T22:02:21.355Z,1.64
2019-02-02T22:04:51.603Z,1.64
2019-02-02T22:07:22.445Z,1.59
2019-02-02T22:09:52.083Z,1.56
2019-02-02T22:12:21.589Z,1.61
2019-02-02T22:14:51.408Z,1.68
2019-02-02T22:17:20.975Z,1.68
2019-02-02T22:19:50.756Z,1.63
2019-02-02T22:22:20.369Z,1.62
2019-02-02T22:24:50.225Z,1.64
2019-02-02T22:27:20.281Z,1.66
2019-02-02T22:29:50.307Z,1.59
2019-02-02T22:32:20.381Z,1.59
2019-02-02T22:34:50.382Z,1.54
2019-02-02T22:37:20.375Z,1.47
2019-02-02T22:39:50.392Z,1.45
2019-02-02T22:42:20.486Z,1.53
2019-02-02T22:44:50.517Z,1.53
2019-02-02T22:47:20.556Z,1.55
2019-02-02T22:49:50.613Z,1.55
2019-02-02T22:52:20.889Z,1.60
2019-02-02T22:54:50.924Z,1.60
2019-02-02T22:57:20.716Z,1.46
2019-02-02T22:59:51.115Z,1.33
2019-02-02T23:02:22.221Z,1.25
2019-02-02T23:05:05.594Z,1.25
2019-02-02T23:08:21.601Z,1.28
2019-02-02T23:11:30.277Z,1.36
2019-02-02T23:14:36.202Z,1.29
2019-02-02T23:17:05.786Z,1.27
2019-02-02T23:19:35.383Z,1.24
2019-02-02T23:22:04.981Z,1.21
2019-02-02T23:24:35.477Z,1.22
2019-02-02T23:27:05.070Z,1.36
2019-02-02T23:29:34.588Z,1.44
2019-02-02T23:32:04.233Z,1.30
2019-02-02T23:34:34.046Z,1.38
2019-02-02T23:37:03.919Z,1.34
2019-02-02T23:39:33.920Z,1.42
2019-02-02T23:42:03.529Z,1.35
2019-02-02T23:44:33.242Z,1.45
2019-02-02T23:47:03.159Z,1.38
2019-02-02T23:49:33.017Z,1.30
2019-02-02T23:52:02.593Z,1.30
2019-02-02T23:54:32.123Z,1.46
2019-02-02T23:57:01.643Z,1.38
2019-02-02T23:59:31.166Z,1.34
